Terminal Aerodrome Forecast
Issued by NWS

Current Version | Previous Version | Graphics & Text | Print | Product List | Glossary Off
Versions: 1 2 3 4 5 6 7 8 9 10 11 12 13 14 15 16 17

000
FTUS41 KPBZ 281128
TAFMGW
TAF
KMGW 281128Z 2812/0112 13004KT P6SM BKN100
     FM281600 16007KT 6SM -RA OVC050
     FM281800 18008KT 4SM -RA OVC020
     FM010000 19012KT 6SM -RA OVC010
     FM010400 20012G22KT P6SM OVC025 WS020/24050KT=

USA.gov is the U.S. government's official web portal to all federal, state and local government web resources and services.